sensor_id;sensor_type;location;lat;lon;timestamp;temperature;humidity
23403;DHT22;11874;48.228;11.684;2024-01-11T00:01:37;-1.40;99.90
23403;DHT22;11874;48.228;11.684;2024-01-11T00:04:05;-1.40;99.90
23403;DHT22;11874;48.228;11.684;2024-01-11T00:06:33;-1.40;99.90
23403;DHT22;11874;48.228;11.684;2024-01-11T00:09:08;-1.40;99.90
23403;DHT22;11874;48.228;11.684;2024-01-11T00:11:40;-1.40;99.90
23403;DHT22;11874;48.228;11.684;2024-01-11T00:14:08;-1.40;99.90
23403;DHT22;11874;48.228;11.684;2024-01-11T00:16:36;-1.40;99.90
23403;DHT22;11874;48.228;11.684;2024-01-11T00:19:04;-1.40;99.90
23403;DHT22;11874;48.228;11.684;2024-01-11T00:21:33;-1.40;99.90
23403;DHT22;11874;48.228;11.684;2024-01-11T00:24:05;-1.40;99.90
23403;DHT22;11874;48.228;11.684;2024-01-11T00:26:34;-1.40;99.90
23403;DHT22;11874;48.228;11.684;2024-01-11T00:29:06;-1.40;99.90
23403;DHT22;11874;48.228;11.684;2024-01-11T00:31:34;-1.40;99.90
23403;DHT22;11874;48.228;11.684;2024-01-11T00:34:04;-1.50;99.90
23403;DHT22;11874;48.228;11.684;2024-01-11T00:36:33;-1.40;99.90
23403;DHT22;11874;48.228;11.684;2024-01-11T00:39:01;-1.40;99.90
23403;DHT22;11874;48.228;11.684;2024-01-11T00:41:29;-1.40;99.90
23403;DHT22;11874;48.228;11.684;2024-01-11T00:43:59;-1.40;99.90
23403;DHT22;11874;48.228;11.684;2024-01-11T00:46:30;-1.40;99.90
23403;DHT22;11874;48.228;11.684;2024-01-11T00:48:58;-1.40;99.90
23403;DHT22;11874;48.228;11.684;2024-01-11T00:51:28;-1.50;99.90
23403;DHT22;11874;48.228;11.684;2024-01-11T00:53:57;-1.50;99.90
23403;DHT22;11874;48.228;11.684;2024-01-11T00:56:25;-1.50;99.90
23403;DHT22;11874;48.228;11.684;2024-01-11T00:58:53;-1.50;99.90
23403;DHT22;11874;48.228;11.684;2024-01-11T01:01:22;-1.50;99.90
23403;DHT22;11874;48.228;11.684;2024-01-11T01:03:52;-1.50;99.90
23403;DHT22;11874;48.228;11.684;2024-01-11T01:06:20;-1.50;99.90
23403;DHT22;11874;48.228;11.684;2024-01-11T01:08:48;-1.50;99.90
23403;DHT22;11874;48.228;11.684;2024-01-11T01:11:18;-1.50;99.90
23403;DHT22;11874;48.228;11.684;2024-01-11T01:13:47;-1.50;99.90
23403;DHT22;11874;48.228;11.684;2024-01-11T01:16:18;-1.50;99.90
23403;DHT22;11874;48.228;11.684;2024-01-11T01:18:48;-1.50;99.90
23403;DHT22;11874;48.228;11.684;2024-01-11T01:21:22;-1.50;99.90
23403;DHT22;11874;48.228;11.684;2024-01-11T01:23:50;-1.60;99.90
23403;DHT22;11874;48.228;11.684;2024-01-11T01:26:17;-1.60;99.90
23403;DHT22;11874;48.228;11.684;2024-01-11T01:28:47;-1.60;99.90
23403;DHT22;11874;48.228;11.684;2024-01-11T01:31:15;-1.60;99.90
23403;DHT22;11874;48.228;11.684;2024-01-11T01:33:43;-1.60;99.90
23403;DHT22;11874;48.228;11.684;2024-01-11T01:36:12;-1.60;99.90
23403;DHT22;11874;48.228;11.684;2024-01-11T01:38:42;-1.60;99.90
23403;DHT22;11874;48.228;11.684;2024-01-11T01:41:10;-1.60;99.90
23403;DHT22;11874;48.228;11.684;2024-01-11T01:43:39;-1.60;99.90
23403;DHT22;11874;48.228;11.684;2024-01-11T01:46:09;-1.50;99.90
23403;DHT22;11874;48.228;11.684;2024-01-11T01:48:38;-1.60;99.90
23403;DHT22;11874;48.228;11.684;2024-01-11T01:51:06;-1.60;99.90
23403;DHT22;11874;48.228;11.684;2024-01-11T01:53:35;-1.60;99.90
23403;DHT22;11874;48.228;11.684;2024-01-11T01:56:06;-1.60;99.90
23403;DHT22;11874;48.228;11.684;2024-01-11T01:58:35;-1.60;99.90
23403;DHT22;11874;48.228;11.684;2024-01-11T02:01:04;-1.60;99.90
23403;DHT22;11874;48.228;11.684;2024-01-11T02:03:37;-1.60;99.90
23403;DHT22;11874;48.228;11.684;2024-01-11T02:06:06;-1.60;99.90
23403;DHT22;11874;48.228;11.684;2024-01-11T02:08:36;-1.60;99.90
23403;DHT22;11874;48.228;11.684;2024-01-11T02:11:08;-1.60;99.90
23403;DHT22;11874;48.228;11.684;2024-01-11T02:13:38;-1.70;99.90
23403;DHT22;11874;48.228;11.684;2024-01-11T02:16:06;-1.70;99.90
23403;DHT22;11874;48.228;11.684;2024-01-11T02:18:37;-1.70;99.90
23403;DHT22;11874;48.228;11.684;2024-01-11T02:21:09;-1.70;99.90
23403;DHT22;11874;48.228;11.684;2024-01-11T02:23:43;-1.70;99.90
23403;DHT22;11874;48.228;11.684;2024-01-11T02:26:14;-1.70;99.90
23403;DHT22;11874;48.228;11.684;2024-01-11T02:28:45;-1.80;99.90
23403;DHT22;11874;48.228;11.684;2024-01-11T02:31:14;-1.80;99.90
23403;DHT22;11874;48.228;11.684;2024-01-11T02:33:42;-1.70;99.90
23403;DHT22;11874;48.228;11.684;2024-01-11T02:36:14;-1.70;99.90
23403;DHT22;11874;48.228;11.684;2024-01-11T02:38:45;-1.70;99.90
23403;DHT22;11874;48.228;11.684;2024-01-11T02:41:16;-1.80;99.90
23403;DHT22;11874;48.228;11.684;2024-01-11T02:43:46;-1.80;99.90
23403;DHT22;11874;48.228;11.684;2024-01-11T02:46:15;-1.70;99.90
23403;DHT22;11874;48.228;11.684;2024-01-11T02:48:43;-1.80;99.90
23403;DHT22;11874;48.228;11.684;2024-01-11T02:51:12;-1.80;99.90
23403;DHT22;11874;48.228;11.684;2024-01-11T02:53:40;-1.80;99.90
23403;DHT22;11874;48.228;11.684;2024-01-11T02:56:08;-1.80;99.90
23403;DHT22;11874;48.228;11.684;2024-01-11T02:58:38;-1.80;99.90
23403;DHT22;11874;48.228;11.684;2024-01-11T03:01:06;-1.80;99.90
23403;DHT22;11874;48.228;11.684;2024-01-11T03:03:34;-1.80;99.90
23403;DHT22;11874;48.228;11.684;2024-01-11T03:06:03;-1.80;99.90
23403;DHT22;11874;48.228;11.684;2024-01-11T03:08:34;-1.90;99.90
23403;DHT22;11874;48.228;11.684;2024-01-11T03:11:03;-1.90;99.90
23403;DHT22;11874;48.228;11.684;2024-01-11T03:13:31;-1.90;99.90
23403;DHT22;11874;48.228;11.684;2024-01-11T03:16:02;-1.90;99.90
23403;DHT22;11874;48.228;11.684;2024-01-11T03:18:30;-1.90;99.90
23403;DHT22;11874;48.228;11.684;2024-01-11T03:20:59;-1.90;99.90
23403;DHT22;11874;48.228;11.684;2024-01-11T03:23:27;-1.90;99.90
23403;DHT22;11874;48.228;11.684;2024-01-11T03:25:58;-2.00;99.90
23403;DHT22;11874;48.228;11.684;2024-01-11T03:28:29;-2.00;99.90
23403;DHT22;11874;48.228;11.684;2024-01-11T03:31:01;-2.00;99.90
23403;DHT22;11874;48.228;11.684;2024-01-11T03:33:29;-2.00;99.90
23403;DHT22;11874;48.228;11.684;2024-01-11T03:35:59;-2.00;99.90
23403;DHT22;11874;48.228;11.684;2024-01-11T03:38:27;-2.00;99.90
23403;DHT22;11874;48.228;11.684;2024-01-11T03:40:55;-2.00;99.90
23403;DHT22;11874;48.228;11.684;2024-01-11T03:43:23;-1.90;99.90
23403;DHT22;11874;48.228;11.684;2024-01-11T03:45:51;-1.90;99.90
23403;DHT22;11874;48.228;11.684;2024-01-11T03:48:21;-1.90;99.90
23403;DHT22;11874;48.228;11.684;2024-01-11T03:50:49;-1.90;99.90
23403;DHT22;11874;48.228;11.684;2024-01-11T03:53:19;-1.90;99.90
23403;DHT22;11874;48.228;11.684;2024-01-11T03:55:49;-1.90;99.90
23403;DHT22;11874;48.228;11.684;2024-01-11T03:58:17;-2.00;99.90
23403;DHT22;11874;48.228;11.684;2024-01-11T04:00:45;-2.00;99.90
23403;DHT22;11874;48.228;11.684;2024-01-11T04:03:13;-2.00;99.90
23403;DHT22;11874;48.228;11.684;2024-01-11T04:05:43;-2.00;99.90
23403;DHT22;11874;48.228;11.684;2024-01-11T04:08:11;-2.00;99.90
23403;DHT22;11874;48.228;11.684;2024-01-11T04:10:39;-2.00;99.90
23403;DHT22;11874;48.228;11.684;2024-01-11T04:13:07;-2.00;99.90
23403;DHT22;11874;48.228;11.684;2024-01-11T04:15:35;-2.00;99.90
23403;DHT22;11874;48.228;11.684;2024-01-11T04:18:03;-2.00;99.90
23403;DHT22;11874;48.228;11.684;2024-01-11T04:20:32;-2.00;99.90
23403;DHT22;11874;48.228;11.684;2024-01-11T04:23:01;-2.00;99.90
23403;DHT22;11874;48.228;11.684;2024-01-11T04:25:31;-2.00;99.90
23403;DHT22;11874;48.228;11.684;2024-01-11T04:28:00;-1.90;99.90
23403;DHT22;11874;48.228;11.684;2024-01-11T04:30:28;-1.90;99.90
23403;DHT22;11874;48.228;11.684;2024-01-11T04:32:57;-1.90;99.90
23403;DHT22;11874;48.228;11.684;2024-01-11T04:35:26;-1.90;99.90
23403;DHT22;11874;48.228;11.684;2024-01-11T04:37:54;-1.90;99.90
23403;DHT22;11874;48.228;11.684;2024-01-11T04:40:23;-1.90;99.90
23403;DHT22;11874;48.228;11.684;2024-01-11T04:42:56;-1.90;99.90
23403;DHT22;11874;48.228;11.684;2024-01-11T04:45:24;-2.00;99.90
23403;DHT22;11874;48.228;11.684;2024-01-11T04:47:52;-1.90;99.90
23403;DHT22;11874;48.228;11.684;2024-01-11T04:50:27;-1.90;99.90
23403;DHT22;11874;48.228;11.684;2024-01-11T04:52:55;-2.00;99.90
23403;DHT22;11874;48.228;11.684;2024-01-11T04:55:24;-2.00;99.90
23403;DHT22;11874;48.228;11.684;2024-01-11T04:57:52;-1.90;99.90
23403;DHT22;11874;48.228;11.684;2024-01-11T05:00:20;-1.80;99.90
23403;DHT22;11874;48.228;11.684;2024-01-11T05:02:48;-1.90;99.90
23403;DHT22;11874;48.228;11.684;2024-01-11T05:05:17;-1.90;99.90
23403;DHT22;11874;48.228;11.684;2024-01-11T05:07:46;-1.90;99.90
23403;DHT22;11874;48.228;11.684;2024-01-11T05:10:14;-2.00;99.90
23403;DHT22;11874;48.228;11.684;2024-01-11T05:12:44;-1.90;99.90
23403;DHT22;11874;48.228;11.684;2024-01-11T05:15:12;-2.00;99.90
23403;DHT22;11874;48.228;11.684;2024-01-11T05:17:40;-2.00;99.90
23403;DHT22;11874;48.228;11.684;2024-01-11T05:20:10;-1.90;99.90
23403;DHT22;11874;48.228;11.684;2024-01-11T05:22:41;-2.00;99.90
23403;DHT22;11874;48.228;11.684;2024-01-11T05:25:09;-1.90;99.90
23403;DHT22;11874;48.228;11.684;2024-01-11T05:27:37;-1.90;99.90
23403;DHT22;11874;48.228;11.684;2024-01-11T05:30:09;-1.90;99.90
23403;DHT22;11874;48.228;11.684;2024-01-11T05:32:37;-2.00;99.90
23403;DHT22;11874;48.228;11.684;2024-01-11T05:35:06;-2.00;99.90
23403;DHT22;11874;48.228;11.684;2024-01-11T05:37:34;-2.00;99.90
23403;DHT22;11874;48.228;11.684;2024-01-11T05:40:03;-2.10;99.90
23403;DHT22;11874;48.228;11.684;2024-01-11T05:42:34;-2.00;99.90
23403;DHT22;11874;48.228;11.684;2024-01-11T05:45:04;-2.00;99.90
23403;DHT22;11874;48.228;11.684;2024-01-11T05:47:37;-2.00;99.90
23403;DHT22;11874;48.228;11.684;2024-01-11T05:50:08;-2.00;99.90
23403;DHT22;11874;48.228;11.684;2024-01-11T05:52:36;-2.00;99.90
23403;DHT22;11874;48.228;11.684;2024-01-11T05:55:04;-2.00;99.90
23403;DHT22;11874;48.228;11.684;2024-01-11T05:57:33;-2.00;99.90
23403;DHT22;11874;48.228;11.684;2024-01-11T06:00:04;-2.00;99.90
23403;DHT22;11874;48.228;11.684;2024-01-11T06:02:36;-2.00;99.90
23403;DHT22;11874;48.228;11.684;2024-01-11T06:05:09;-2.10;99.90
23403;DHT22;11874;48.228;11.684;2024-01-11T06:07:39;-2.10;99.90
23403;DHT22;11874;48.228;11.684;2024-01-11T06:10:08;-2.00;99.90
23403;DHT22;11874;48.228;11.684;2024-01-11T06:12:37;-2.10;99.90
23403;DHT22;11874;48.228;11.684;2024-01-11T06:15:08;-2.10;99.90
23403;DHT22;11874;48.228;11.684;2024-01-11T06:17:37;-2.10;99.90
23403;DHT22;11874;48.228;11.684;2024-01-11T06:20:06;-2.10;99.90
23403;DHT22;11874;48.228;11.684;2024-01-11T06:22:36;-2.10;99.90
23403;DHT22;11874;48.228;11.684;2024-01-11T06:25:04;-2.10;99.90
23403;DHT22;11874;48.228;11.684;2024-01-11T06:27:34;-2.10;99.90
23403;DHT22;11874;48.228;11.684;2024-01-11T06:30:02;-2.10;99.90
23403;DHT22;11874;48.228;11.684;2024-01-11T06:32:33;-2.10;99.90
23403;DHT22;11874;48.228;11.684;2024-01-11T06:35:07;-2.10;99.90
23403;DHT22;11874;48.228;11.684;2024-01-11T06:37:35;-2.20;99.90
23403;DHT22;11874;48.228;11.684;2024-01-11T06:40:05;-2.20;99.90
23403;DHT22;11874;48.228;11.684;2024-01-11T06:42:35;-2.20;99.90
23403;DHT22;11874;48.228;11.684;2024-01-11T06:45:04;-2.20;99.90
23403;DHT22;11874;48.228;11.684;2024-01-11T06:47:32;-2.20;99.90
23403;DHT22;11874;48.228;11.684;2024-01-11T06:50:01;-2.20;99.90
23403;DHT22;11874;48.228;11.684;2024-01-11T06:52:32;-2.30;99.90
23403;DHT22;11874;48.228;11.684;2024-01-11T06:55:00;-2.30;99.90
23403;DHT22;11874;48.228;11.684;2024-01-11T06:57:28;-2.00;99.90
23403;DHT22;11874;48.228;11.684;2024-01-11T06:59:56;-2.30;99.90
23403;DHT22;11874;48.228;11.684;2024-01-11T07:02:25;-2.30;99.90
23403;DHT22;11874;48.228;11.684;2024-01-11T07:04:54;-2.40;99.90
23403;DHT22;11874;48.228;11.684;2024-01-11T07:07:25;-2.40;99.90
23403;DHT22;11874;48.228;11.684;2024-01-11T07:09:54;-2.40;99.90
23403;DHT22;11874;48.228;11.684;2024-01-11T07:12:23;-2.40;99.90
23403;DHT22;11874;48.228;11.684;2024-01-11T07:14:51;-2.30;99.90
23403;DHT22;11874;48.228;11.684;2024-01-11T07:17:19;-2.30;99.90
23403;DHT22;11874;48.228;11.684;2024-01-11T07:19:47;-2.20;99.90
23403;DHT22;11874;48.228;11.684;2024-01-11T07:22:16;-2.20;99.90
23403;DHT22;11874;48.228;11.684;2024-01-11T07:24:45;-2.20;99.90
23403;DHT22;11874;48.228;11.684;2024-01-11T07:27:18;-2.20;99.90
23403;DHT22;11874;48.228;11.684;2024-01-11T07:29:47;-2.20;99.90
23403;DHT22;11874;48.228;11.684;2024-01-11T07:32:15;-2.20;99.90
23403;DHT22;11874;48.228;11.684;2024-01-11T07:34:45;-2.30;99.90
23403;DHT22;11874;48.228;11.684;2024-01-11T07:37:14;-2.30;99.90
23403;DHT22;11874;48.228;11.684;2024-01-11T07:39:44;-2.30;99.90
23403;DHT22;11874;48.228;11.684;2024-01-11T07:42:13;-2.30;99.90
23403;DHT22;11874;48.228;11.684;2024-01-11T07:44:44;-2.30;99.90
23403;DHT22;11874;48.228;11.684;2024-01-11T07:47:13;-2.30;99.90
23403;DHT22;11874;48.228;11.684;2024-01-11T07:49:42;-2.30;99.90
23403;DHT22;11874;48.228;11.684;2024-01-11T07:52:10;-2.20;99.90
23403;DHT22;11874;48.228;11.684;2024-01-11T07:54:41;-2.20;99.90
23403;DHT22;11874;48.228;11.684;2024-01-11T07:57:10;-2.30;99.90
23403;DHT22;11874;48.228;11.684;2024-01-11T07:59:38;-2.30;99.90
23403;DHT22;11874;48.228;11.684;2024-01-11T08:02:08;-2.30;99.90
23403;DHT22;11874;48.228;11.684;2024-01-11T08:04:36;-2.30;99.90
23403;DHT22;11874;48.228;11.684;2024-01-11T08:07:05;-2.30;99.90
23403;DHT22;11874;48.228;11.684;2024-01-11T08:09:33;-2.30;99.90
23403;DHT22;11874;48.228;11.684;2024-01-11T08:12:05;-2.30;99.90
23403;DHT22;11874;48.228;11.684;2024-01-11T08:14:34;-2.20;99.90
23403;DHT22;11874;48.228;11.684;2024-01-11T08:17:02;-2.20;99.90
23403;DHT22;11874;48.228;11.684;2024-01-11T08:19:33;-2.20;99.90
23403;DHT22;11874;48.228;11.684;2024-01-11T08:22:02;-2.20;99.90
23403;DHT22;11874;48.228;11.684;2024-01-11T08:24:32;-2.20;99.90
23403;DHT22;11874;48.228;11.684;2024-01-11T08:27:01;-2.20;99.90
23403;DHT22;11874;48.228;11.684;2024-01-11T08:29:30;-2.20;99.90
23403;DHT22;11874;48.228;11.684;2024-01-11T08:31:58;-2.20;99.90
23403;DHT22;11874;48.228;11.684;2024-01-11T08:34:38;-2.20;99.90
23403;DHT22;11874;48.228;11.684;2024-01-11T08:37:07;-2.20;99.90
23403;DHT22;11874;48.228;11.684;2024-01-11T08:39:38;-2.10;99.90
23403;DHT22;11874;48.228;11.684;2024-01-11T08:42:08;-2.10;99.90
23403;DHT22;11874;48.228;11.684;2024-01-11T08:44:41;-2.00;99.90
23403;DHT22;11874;48.228;11.684;2024-01-11T08:47:09;-2.00;99.90
23403;DHT22;11874;48.228;11.684;2024-01-11T08:49:39;-2.00;99.90
23403;DHT22;11874;48.228;11.684;2024-01-11T08:52:08;-2.00;99.90
23403;DHT22;11874;48.228;11.684;2024-01-11T08:54:36;-2.00;99.90
23403;DHT22;11874;48.228;11.684;2024-01-11T08:57:06;-2.00;99.90
23403;DHT22;11874;48.228;11.684;2024-01-11T08:59:36;-2.00;99.90
23403;DHT22;11874;48.228;11.684;2024-01-11T09:02:05;-1.90;99.90
23403;DHT22;11874;48.228;11.684;2024-01-11T09:04:45;-2.00;99.90
23403;DHT22;11874;48.228;11.684;2024-01-11T09:07:14;-2.00;99.90
23403;DHT22;11874;48.228;11.684;2024-01-11T09:09:43;-2.00;99.90
23403;DHT22;11874;48.228;11.684;2024-01-11T09:12:22;-2.00;99.90
23403;DHT22;11874;48.228;11.684;2024-01-11T09:14:53;-2.00;99.90
23403;DHT22;11874;48.228;11.684;2024-01-11T09:17:21;-2.00;99.90
23403;DHT22;11874;48.228;11.684;2024-01-11T09:19:51;-2.00;99.90
23403;DHT22;11874;48.228;11.684;2024-01-11T09:22:19;-2.00;99.90
23403;DHT22;11874;48.228;11.684;2024-01-11T09:24:47;-2.00;99.90
23403;DHT22;11874;48.228;11.684;2024-01-11T09:27:16;-2.00;99.90
23403;DHT22;11874;48.228;11.684;2024-01-11T09:29:44;-2.00;99.90
23403;DHT22;11874;48.228;11.684;2024-01-11T09:32:13;-2.00;99.90
23403;DHT22;11874;48.228;11.684;2024-01-11T09:34:42;-1.90;99.90
23403;DHT22;11874;48.228;11.684;2024-01-11T09:37:14;-2.00;99.90
23403;DHT22;11874;48.228;11.684;2024-01-11T09:39:42;-1.90;99.90
23403;DHT22;11874;48.228;11.684;2024-01-11T09:42:11;-1.90;99.90
23403;DHT22;11874;48.228;11.684;2024-01-11T09:44:41;-1.90;99.90
23403;DHT22;11874;48.228;11.684;2024-01-11T09:47:10;-1.80;99.90
23403;DHT22;11874;48.228;11.684;2024-01-11T09:49:43;-1.80;99.90
23403;DHT22;11874;48.228;11.684;2024-01-11T09:52:17;-1.80;99.90
23403;DHT22;11874;48.228;11.684;2024-01-11T09:54:48;-1.80;99.90
23403;DHT22;11874;48.228;11.684;2024-01-11T09:57:23;-1.80;99.90
23403;DHT22;11874;48.228;11.684;2024-01-11T09:59:56;-1.80;99.90
23403;DHT22;11874;48.228;11.684;2024-01-11T10:02:25;-1.80;99.90
23403;DHT22;11874;48.228;11.684;2024-01-11T10:04:54;-1.80;99.90
23403;DHT22;11874;48.228;11.684;2024-01-11T10:07:30;-1.80;99.90
23403;DHT22;11874;48.228;11.684;2024-01-11T10:09:59;-1.70;99.90
23403;DHT22;11874;48.228;11.684;2024-01-11T10:12:27;-1.70;99.90
23403;DHT22;11874;48.228;11.684;2024-01-11T10:15:05;-1.70;99.90
23403;DHT22;11874;48.228;11.684;2024-01-11T10:17:38;-1.70;99.90
23403;DHT22;11874;48.228;11.684;2024-01-11T10:20:08;-1.70;99.90
23403;DHT22;11874;48.228;11.684;2024-01-11T10:22:39;-1.70;99.90
23403;DHT22;11874;48.228;11.684;2024-01-11T10:25:09;-1.70;99.90
23403;DHT22;11874;48.228;11.684;2024-01-11T10:27:40;-1.70;99.90
23403;DHT22;11874;48.228;11.684;2024-01-11T10:30:13;-1.60;99.90
23403;DHT22;11874;48.228;11.684;2024-01-11T10:32:44;-1.60;99.90
23403;DHT22;11874;48.228;11.684;2024-01-11T10:35:13;-1.60;99.90
23403;DHT22;11874;48.228;11.684;2024-01-11T10:37:43;-1.60;99.90
23403;DHT22;11874;48.228;11.684;2024-01-11T10:40:13;-1.70;99.90
23403;DHT22;11874;48.228;11.684;2024-01-11T10:42:43;-1.70;99.90
23403;DHT22;11874;48.228;11.684;2024-01-11T10:45:15;-1.70;99.90
23403;DHT22;11874;48.228;11.684;2024-01-11T10:47:53;-1.70;99.90
23403;DHT22;11874;48.228;11.684;2024-01-11T10:50:24;-1.60;99.90
23403;DHT22;11874;48.228;11.684;2024-01-11T10:53:08;-1.60;99.90
23403;DHT22;11874;48.228;11.684;2024-01-11T10:55:42;-1.60;99.90
23403;DHT22;11874;48.228;11.684;2024-01-11T10:58:15;-1.60;99.90
23403;DHT22;11874;48.228;11.684;2024-01-11T11:00:45;-1.60;99.90
23403;DHT22;11874;48.228;11.684;2024-01-11T11:03:16;-1.60;99.90
23403;DHT22;11874;48.228;11.684;2024-01-11T11:05:49;-1.60;99.90
23403;DHT22;11874;48.228;11.684;2024-01-11T11:08:22;-1.50;99.90
23403;DHT22;11874;48.228;11.684;2024-01-11T11:10:55;-1.60;99.90
23403;DHT22;11874;48.228;11.684;2024-01-11T11:13:24;-1.60;99.90
23403;DHT22;11874;48.228;11.684;2024-01-11T11:15:53;-1.60;99.90
23403;DHT22;11874;48.228;11.684;2024-01-11T11:18:28;-1.50;99.90
23403;DHT22;11874;48.228;11.684;2024-01-11T11:20:58;-1.50;99.90
23403;DHT22;11874;48.228;11.684;2024-01-11T11:23:30;-1.50;99.90
23403;DHT22;11874;48.228;11.684;2024-01-11T11:25:58;-1.50;99.90
23403;DHT22;11874;48.228;11.684;2024-01-11T11:28:26;-1.40;99.90
23403;DHT22;11874;48.228;11.684;2024-01-11T11:31:00;-1.30;99.90
23403;DHT22;11874;48.228;11.684;2024-01-11T11:33:31;-1.30;99.90
23403;DHT22;11874;48.228;11.684;2024-01-11T11:36:00;-1.30;99.90
23403;DHT22;11874;48.228;11.684;2024-01-11T11:38:32;-1.30;99.90
23403;DHT22;11874;48.228;11.684;2024-01-11T11:41:02;-1.30;99.90
23403;DHT22;11874;48.228;11.684;2024-01-11T11:43:31;-1.30;99.90
23403;DHT22;11874;48.228;11.684;2024-01-11T11:46:00;-1.40;99.90
23403;DHT22;11874;48.228;11.684;2024-01-11T11:48:50;-1.40;99.90
23403;DHT22;11874;48.228;11.684;2024-01-11T11:51:23;-1.40;99.90
23403;DHT22;11874;48.228;11.684;2024-01-11T11:53:57;-1.40;99.90
23403;DHT22;11874;48.228;11.684;2024-01-11T11:56:27;-1.40;99.90
23403;DHT22;11874;48.228;11.684;2024-01-11T11:58:58;-1.40;99.90
23403;DHT22;11874;48.228;11.684;2024-01-11T12:01:29;-1.40;99.90
23403;DHT22;11874;48.228;11.684;2024-01-11T12:03:59;-1.50;99.90
23403;DHT22;11874;48.228;11.684;2024-01-11T12:06:30;-1.40;99.90
23403;DHT22;11874;48.228;11.684;2024-01-11T12:09:02;-1.40;99.90
23403;DHT22;11874;48.228;11.684;2024-01-11T12:11:30;-1.40;99.90
23403;DHT22;11874;48.228;11.684;2024-01-11T12:14:00;-1.40;99.90
23403;DHT22;11874;48.228;11.684;2024-01-11T12:16:29;-1.30;99.90
23403;DHT22;11874;48.228;11.684;2024-01-11T12:19:00;-1.40;99.90
23403;DHT22;11874;48.228;11.684;2024-01-11T12:21:28;-1.30;99.90
23403;DHT22;11874;48.228;11.684;2024-01-11T12:23:58;-1.40;99.90
23403;DHT22;11874;48.228;11.684;2024-01-11T12:26:29;-1.30;99.90
23403;DHT22;11874;48.228;11.684;2024-01-11T12:28:57;-1.20;99.90
23403;DHT22;11874;48.228;11.684;2024-01-11T12:31:26;-1.20;99.90
23403;DHT22;11874;48.228;11.684;2024-01-11T12:33:56;-1.20;99.90
23403;DHT22;11874;48.228;11.684;2024-01-11T12:36:28;-1.20;99.90
23403;DHT22;11874;48.228;11.684;2024-01-11T12:38:58;-1.10;99.90
23403;DHT22;11874;48.228;11.684;2024-01-11T12:41:26;-1.10;99.90
23403;DHT22;11874;48.228;11.684;2024-01-11T12:43:56;-1.10;99.90
23403;DHT22;11874;48.228;11.684;2024-01-11T12:46:24;-1.20;99.90
23403;DHT22;11874;48.228;11.684;2024-01-11T12:48:53;-1.20;99.90
23403;DHT22;11874;48.228;11.684;2024-01-11T12:51:21;-1.10;99.90
23403;DHT22;11874;48.228;11.684;2024-01-11T12:53:52;-1.20;99.90
23403;DHT22;11874;48.228;11.684;2024-01-11T12:56:21;-1.20;99.90
23403;DHT22;11874;48.228;11.684;2024-01-11T12:58:50;-1.20;99.90
23403;DHT22;11874;48.228;11.684;2024-01-11T13:01:21;-1.20;99.90
23403;DHT22;11874;48.228;11.684;2024-01-11T13:03:56;-1.20;99.90
23403;DHT22;11874;48.228;11.684;2024-01-11T13:06:25;-1.10;99.90
23403;DHT22;11874;48.228;11.684;2024-01-11T13:08:53;-1.10;99.90
23403;DHT22;11874;48.228;11.684;2024-01-11T13:11:21;-1.00;99.90
23403;DHT22;11874;48.228;11.684;2024-01-11T13:13:50;-1.00;99.90
23403;DHT22;11874;48.228;11.684;2024-01-11T13:16:18;-1.00;99.90
23403;DHT22;11874;48.228;11.684;2024-01-11T13:18:49;-1.00;99.90
23403;DHT22;11874;48.228;11.684;2024-01-11T13:21:17;-1.00;99.90
23403;DHT22;11874;48.228;11.684;2024-01-11T13:23:45;-1.00;99.90
23403;DHT22;11874;48.228;11.684;2024-01-11T13:26:13;-1.00;99.90
23403;DHT22;11874;48.228;11.684;2024-01-11T13:28:42;-1.00;99.90
23403;DHT22;11874;48.228;11.684;2024-01-11T13:31:10;-1.00;99.90
23403;DHT22;11874;48.228;11.684;2024-01-11T13:33:38;-1.00;99.90
23403;DHT22;11874;48.228;11.684;2024-01-11T13:36:08;-1.10;99.90
23403;DHT22;11874;48.228;11.684;2024-01-11T13:38:37;-1.10;99.90
23403;DHT22;11874;48.228;11.684;2024-01-11T13:41:05;-1.00;99.90
23403;DHT22;11874;48.228;11.684;2024-01-11T13:43:35;-1.10;99.90
23403;DHT22;11874;48.228;11.684;2024-01-11T13:46:05;-1.10;99.90
23403;DHT22;11874;48.228;11.684;2024-01-11T13:48:33;-1.00;99.90
23403;DHT22;11874;48.228;11.684;2024-01-11T13:51:02;-1.00;99.90
23403;DHT22;11874;48.228;11.684;2024-01-11T13:53:32;-1.10;99.90
23403;DHT22;11874;48.228;11.684;2024-01-11T13:56:00;-1.10;99.90
23403;DHT22;11874;48.228;11.684;2024-01-11T13:58:31;-1.10;99.90
23403;DHT22;11874;48.228;11.684;2024-01-11T14:00:59;-1.00;99.90
23403;DHT22;11874;48.228;11.684;2024-01-11T14:03:29;-1.00;99.90
23403;DHT22;11874;48.228;11.684;2024-01-11T14:05:57;-1.10;99.90
23403;DHT22;11874;48.228;11.684;2024-01-11T14:08:27;-1.10;99.90
23403;DHT22;11874;48.228;11.684;2024-01-11T14:10:57;-1.10;99.90
23403;DHT22;11874;48.228;11.684;2024-01-11T14:13:25;-1.10;99.90
23403;DHT22;11874;48.228;11.684;2024-01-11T14:15:53;-1.10;99.90
23403;DHT22;11874;48.228;11.684;2024-01-11T14:18:22;-1.10;99.90
23403;DHT22;11874;48.228;11.684;2024-01-11T14:20:51;-1.10;99.90
23403;DHT22;11874;48.228;11.684;2024-01-11T14:23:19;-1.10;99.90
23403;DHT22;11874;48.228;11.684;2024-01-11T14:25:47;-1.10;99.90
23403;DHT22;11874;48.228;11.684;2024-01-11T14:28:20;-1.10;99.90
23403;DHT22;11874;48.228;11.684;2024-01-11T14:30:50;-1.20;99.90
23403;DHT22;11874;48.228;11.684;2024-01-11T14:33:18;-1.20;99.90
23403;DHT22;11874;48.228;11.684;2024-01-11T14:35:47;-1.20;99.90
23403;DHT22;11874;48.228;11.684;2024-01-11T14:38:16;-1.20;99.90
23403;DHT22;11874;48.228;11.684;2024-01-11T14:40:44;-1.20;99.90
23403;DHT22;11874;48.228;11.684;2024-01-11T14:43:14;-1.20;99.90
23403;DHT22;11874;48.228;11.684;2024-01-11T14:45:44;-1.20;99.90
23403;DHT22;11874;48.228;11.684;2024-01-11T14:48:13;-1.20;99.90
23403;DHT22;11874;48.228;11.684;2024-01-11T14:50:41;-1.20;99.90
23403;DHT22;11874;48.228;11.684;2024-01-11T14:53:15;-1.20;99.90
23403;DHT22;11874;48.228;11.684;2024-01-11T14:55:43;-1.10;99.90
23403;DHT22;11874;48.228;11.684;2024-01-11T14:58:12;-1.10;99.90
23403;DHT22;11874;48.228;11.684;2024-01-11T15:00:41;-1.10;99.90
23403;DHT22;11874;48.228;11.684;2024-01-11T15:03:11;-1.10;99.90
23403;DHT22;11874;48.228;11.684;2024-01-11T15:05:45;-1.10;99.90
23403;DHT22;11874;48.228;11.684;2024-01-11T15:08:13;-1.10;99.90
23403;DHT22;11874;48.228;11.684;2024-01-11T15:10:41;-1.20;99.90
23403;DHT22;11874;48.228;11.684;2024-01-11T15:13:10;-1.20;99.90
23403;DHT22;11874;48.228;11.684;2024-01-11T15:15:38;-1.20;99.90
23403;DHT22;11874;48.228;11.684;2024-01-11T15:18:07;-1.20;99.90
23403;DHT22;11874;48.228;11.684;2024-01-11T15:20:36;-1.30;99.90
23403;DHT22;11874;48.228;11.684;2024-01-11T15:23:08;-1.20;99.90
23403;DHT22;11874;48.228;11.684;2024-01-11T15:25:42;-1.20;99.90
23403;DHT22;11874;48.228;11.684;2024-01-11T15:28:10;-1.30;99.90
23403;DHT22;11874;48.228;11.684;2024-01-11T15:30:38;-1.30;99.90